sensor_id;sensor_type;location;lat;lon;timestamp;temperature;humidity
4090;DHT22;2059;48.538;12.146;2023-09-30T00:00:41;20.10;97.40
4090;DHT22;2059;48.538;12.146;2023-09-30T00:05:42;20.00;97.60
4090;DHT22;2059;48.538;12.146;2023-09-30T00:10:45;19.90;97.80
4090;DHT22;2059;48.538;12.146;2023-09-30T00:15:48;19.80;98.00
4090;DHT22;2059;48.538;12.146;2023-09-30T00:20:50;19.80;98.20
4090;DHT22;2059;48.538;12.146;2023-09-30T00:25:53;19.70;98.20
4090;DHT22;2059;48.538;12.146;2023-09-30T00:30:54;19.60;98.40
4090;DHT22;2059;48.538;12.146;2023-09-30T00:35:56;19.50;98.50
4090;DHT22;2059;48.538;12.146;2023-09-30T00:40:59;19.50;98.60
4090;DHT22;2059;48.538;12.146;2023-09-30T00:46:06;19.50;98.80
4090;DHT22;2059;48.538;12.146;2023-09-30T00:51:08;19.40;98.90
4090;DHT22;2059;48.538;12.146;2023-09-30T00:56:11;19.30;99.00
4090;DHT22;2059;48.538;12.146;2023-09-30T01:01:15;19.20;99.00
4090;DHT22;2059;48.538;12.146;2023-09-30T01:06:17;19.10;99.20
4090;DHT22;2059;48.538;12.146;2023-09-30T01:11:21;19.00;99.30
4090;DHT22;2059;48.538;12.146;2023-09-30T01:16:23;19.00;99.30
4090;DHT22;2059;48.538;12.146;2023-09-30T01:21:25;19.00;99.40
4090;DHT22;2059;48.538;12.146;2023-09-30T01:26:29;19.00;99.40
4090;DHT22;2059;48.538;12.146;2023-09-30T01:31:31;18.90;99.50
4090;DHT22;2059;48.538;12.146;2023-09-30T01:36:33;18.80;99.60
4090;DHT22;2059;48.538;12.146;2023-09-30T01:41:36;18.80;99.60
4090;DHT22;2059;48.538;12.146;2023-09-30T01:46:38;18.80;99.90
4090;DHT22;2059;48.538;12.146;2023-09-30T01:51:40;18.70;99.90
4090;DHT22;2059;48.538;12.146;2023-09-30T01:56:43;18.70;99.90
4090;DHT22;2059;48.538;12.146;2023-09-30T02:01:44;18.70;99.90
4090;DHT22;2059;48.538;12.146;2023-09-30T02:06:47;18.60;99.90
4090;DHT22;2059;48.538;12.146;2023-09-30T02:11:50;18.70;99.90
4090;DHT22;2059;48.538;12.146;2023-09-30T02:16:52;18.70;99.90
4090;DHT22;2059;48.538;12.146;2023-09-30T02:21:54;18.60;99.90
4090;DHT22;2059;48.538;12.146;2023-09-30T02:26:57;18.60;99.90
4090;DHT22;2059;48.538;12.146;2023-09-30T02:31:59;18.60;99.90
4090;DHT22;2059;48.538;12.146;2023-09-30T02:37:01;18.60;99.90
4090;DHT22;2059;48.538;12.146;2023-09-30T02:42:04;18.60;99.90
4090;DHT22;2059;48.538;12.146;2023-09-30T02:47:06;18.70;99.90
4090;DHT22;2059;48.538;12.146;2023-09-30T02:52:09;18.70;99.90
4090;DHT22;2059;48.538;12.146;2023-09-30T02:57:12;18.70;99.90
4090;DHT22;2059;48.538;12.146;2023-09-30T03:02:14;18.60;99.90
4090;DHT22;2059;48.538;12.146;2023-09-30T03:07:17;18.50;99.90
4090;DHT22;2059;48.538;12.146;2023-09-30T03:12:21;18.50;99.90
4090;DHT22;2059;48.538;12.146;2023-09-30T03:17:23;18.40;99.90
4090;DHT22;2059;48.538;12.146;2023-09-30T03:22:26;18.40;99.90
4090;DHT22;2059;48.538;12.146;2023-09-30T03:27:29;18.40;99.90
4090;DHT22;2059;48.538;12.146;2023-09-30T03:32:31;18.30;99.90
4090;DHT22;2059;48.538;12.146;2023-09-30T03:37:33;18.30;99.90
4090;DHT22;2059;48.538;12.146;2023-09-30T03:42:36;18.30;99.90
4090;DHT22;2059;48.538;12.146;2023-09-30T03:47:40;18.30;99.90
4090;DHT22;2059;48.538;12.146;2023-09-30T03:52:43;18.40;99.90
4090;DHT22;2059;48.538;12.146;2023-09-30T03:57:46;18.40;99.90
4090;DHT22;2059;48.538;12.146;2023-09-30T04:02:49;18.30;99.90
4090;DHT22;2059;48.538;12.146;2023-09-30T04:07:54;18.30;99.90
4090;DHT22;2059;48.538;12.146;2023-09-30T04:12:57;18.30;99.90
4090;DHT22;2059;48.538;12.146;2023-09-30T04:18:00;18.30;99.90
4090;DHT22;2059;48.538;12.146;2023-09-30T04:23:01;18.30;99.90
4090;DHT22;2059;48.538;12.146;2023-09-30T04:28:05;18.30;99.90
4090;DHT22;2059;48.538;12.146;2023-09-30T04:33:07;18.30;99.90
4090;DHT22;2059;48.538;12.146;2023-09-30T04:38:12;18.30;99.90
4090;DHT22;2059;48.538;12.146;2023-09-30T04:43:16;18.20;99.90
4090;DHT22;2059;48.538;12.146;2023-09-30T04:48:18;18.10;99.90
4090;DHT22;2059;48.538;12.146;2023-09-30T04:53:19;18.10;99.90
4090;DHT22;2059;48.538;12.146;2023-09-30T04:58:25;18.00;99.90
4090;DHT22;2059;48.538;12.146;2023-09-30T05:03:26;17.90;99.90
4090;DHT22;2059;48.538;12.146;2023-09-30T05:08:28;17.90;99.90
4090;DHT22;2059;48.538;12.146;2023-09-30T05:13:32;17.80;99.90
4090;DHT22;2059;48.538;12.146;2023-09-30T05:18:35;17.90;99.90
4090;DHT22;2059;48.538;12.146;2023-09-30T05:23:37;17.90;99.90
4090;DHT22;2059;48.538;12.146;2023-09-30T05:28:40;17.80;99.90
4090;DHT22;2059;48.538;12.146;2023-09-30T05:33:43;17.80;99.90
4090;DHT22;2059;48.538;12.146;2023-09-30T05:38:44;17.70;99.90
4090;DHT22;2059;48.538;12.146;2023-09-30T05:43:49;17.70;99.90
4090;DHT22;2059;48.538;12.146;2023-09-30T05:48:51;17.80;99.90
4090;DHT22;2059;48.538;12.146;2023-09-30T05:53:53;17.80;99.90
4090;DHT22;2059;48.538;12.146;2023-09-30T05:58:56;17.80;99.90
4090;DHT22;2059;48.538;12.146;2023-09-30T06:03:58;17.80;99.90
4090;DHT22;2059;48.538;12.146;2023-09-30T06:09:00;17.80;99.90
4090;DHT22;2059;48.538;12.146;2023-09-30T06:14:03;17.80;99.90
4090;DHT22;2059;48.538;12.146;2023-09-30T06:19:06;18.00;99.90
4090;DHT22;2059;48.538;12.146;2023-09-30T06:24:09;18.00;99.90
4090;DHT22;2059;48.538;12.146;2023-09-30T06:29:12;18.10;99.90
4090;DHT22;2059;48.538;12.146;2023-09-30T06:34:14;18.20;99.90
4090;DHT22;2059;48.538;12.146;2023-09-30T06:39:17;18.30;99.90
4090;DHT22;2059;48.538;12.146;2023-09-30T06:44:21;18.40;99.90
4090;DHT22;2059;48.538;12.146;2023-09-30T06:49:25;18.40;99.90
4090;DHT22;2059;48.538;12.146;2023-09-30T06:54:26;18.50;99.90
4090;DHT22;2059;48.538;12.146;2023-09-30T06:59:31;18.50;99.90
4090;DHT22;2059;48.538;12.146;2023-09-30T07:04:33;18.60;99.90
4090;DHT22;2059;48.538;12.146;2023-09-30T07:09:35;18.60;99.90
4090;DHT22;2059;48.538;12.146;2023-09-30T07:14:38;18.80;99.90
4090;DHT22;2059;48.538;12.146;2023-09-30T07:19:40;18.80;99.90
4090;DHT22;2059;48.538;12.146;2023-09-30T07:24:42;18.80;99.90
4090;DHT22;2059;48.538;12.146;2023-09-30T07:29:45;18.80;99.90
4090;DHT22;2059;48.538;12.146;2023-09-30T07:34:48;18.80;99.90
4090;DHT22;2059;48.538;12.146;2023-09-30T07:39:50;18.80;99.90
4090;DHT22;2059;48.538;12.146;2023-09-30T07:44:53;18.90;99.90
4090;DHT22;2059;48.538;12.146;2023-09-30T07:49:55;19.00;99.90
4090;DHT22;2059;48.538;12.146;2023-09-30T07:54:57;18.90;99.90
4090;DHT22;2059;48.538;12.146;2023-09-30T08:00:00;18.90;99.90
4090;DHT22;2059;48.538;12.146;2023-09-30T08:05:06;19.00;99.90
4090;DHT22;2059;48.538;12.146;2023-09-30T08:10:08;19.30;99.90
4090;DHT22;2059;48.538;12.146;2023-09-30T08:15:15;19.50;99.90
4090;DHT22;2059;48.538;12.146;2023-09-30T08:20:17;19.50;99.90
4090;DHT22;2059;48.538;12.146;2023-09-30T08:25:19;19.60;99.90
4090;DHT22;2059;48.538;12.146;2023-09-30T08:30:22;19.60;99.90
4090;DHT22;2059;48.538;12.146;2023-09-30T08:35:24;19.70;99.90
4090;DHT22;2059;48.538;12.146;2023-09-30T08:40:25;19.80;99.90
4090;DHT22;2059;48.538;12.146;2023-09-30T08:45:30;19.90;99.90
4090;DHT22;2059;48.538;12.146;2023-09-30T08:50:35;20.00;99.90
4090;DHT22;2059;48.538;12.146;2023-09-30T08:55:41;20.10;99.90
4090;DHT22;2059;48.538;12.146;2023-09-30T09:00:47;20.20;99.90
4090;DHT22;2059;48.538;12.146;2023-09-30T09:05:54;20.20;99.90
4090;DHT22;2059;48.538;12.146;2023-09-30T09:10:57;20.30;99.90
4090;DHT22;2059;48.538;12.146;2023-09-30T09:16:07;20.20;99.90
4090;DHT22;2059;48.538;12.146;2023-09-30T09:21:11;20.20;99.90
4090;DHT22;2059;48.538;12.146;2023-09-30T09:26:23;20.30;99.90
4090;DHT22;2059;48.538;12.146;2023-09-30T09:31:28;20.50;99.90
4090;DHT22;2059;48.538;12.146;2023-09-30T09:36:39;20.60;99.90
4090;DHT22;2059;48.538;12.146;2023-09-30T09:41:49;20.80;99.90
4090;DHT22;2059;48.538;12.146;2023-09-30T09:46:53;20.70;99.20
4090;DHT22;2059;48.538;12.146;2023-09-30T09:51:56;20.60;99.40
4090;DHT22;2059;48.538;12.146;2023-09-30T09:57:00;20.60;99.60
4090;DHT22;2059;48.538;12.146;2023-09-30T10:02:10;20.60;99.50
4090;DHT22;2059;48.538;12.146;2023-09-30T10:07:16;20.60;99.60
4090;DHT22;2059;48.538;12.146;2023-09-30T10:12:21;20.60;99.80
4090;DHT22;2059;48.538;12.146;2023-09-30T10:17:58;20.70;99.80
4090;DHT22;2059;48.538;12.146;2023-09-30T10:23:23;20.90;99.40
4090;DHT22;2059;48.538;12.146;2023-09-30T10:28:37;21.00;98.90
4090;DHT22;2059;48.538;12.146;2023-09-30T10:39:57;21.40;98.20
4090;DHT22;2059;48.538;12.146;2023-09-30T10:44:59;21.60;98.20
4090;DHT22;2059;48.538;12.146;2023-09-30T10:50:01;21.60;97.90
4090;DHT22;2059;48.538;12.146;2023-09-30T10:55:06;21.70;98.30
4090;DHT22;2059;48.538;12.146;2023-09-30T11:00:09;21.90;97.60
4090;DHT22;2059;48.538;12.146;2023-09-30T11:05:13;22.40;96.80
4090;DHT22;2059;48.538;12.146;2023-09-30T11:10:17;22.30;97.10
4090;DHT22;2059;48.538;12.146;2023-09-30T11:15:19;22.40;97.10
4090;DHT22;2059;48.538;12.146;2023-09-30T11:20:21;22.70;96.60
4090;DHT22;2059;48.538;12.146;2023-09-30T11:25:25;22.90;96.00
4090;DHT22;2059;48.538;12.146;2023-09-30T11:30:26;23.80;96.70
4090;DHT22;2059;48.538;12.146;2023-09-30T11:35:28;24.10;95.40
4090;DHT22;2059;48.538;12.146;2023-09-30T11:40:31;23.70;95.10
4090;DHT22;2059;48.538;12.146;2023-09-30T11:45:34;23.10;95.80
4090;DHT22;2059;48.538;12.146;2023-09-30T11:50:48;22.80;96.00
4090;DHT22;2059;48.538;12.146;2023-09-30T11:55:52;22.60;96.20
4090;DHT22;2059;48.538;12.146;2023-09-30T12:00:57;22.70;96.00
4090;DHT22;2059;48.538;12.146;2023-09-30T12:06:00;22.60;96.40
4090;DHT22;2059;48.538;12.146;2023-09-30T12:11:03;23.10;96.30
4090;DHT22;2059;48.538;12.146;2023-09-30T12:16:06;23.50;94.70
4090;DHT22;2059;48.538;12.146;2023-09-30T12:21:08;23.90;94.20
4090;DHT22;2059;48.538;12.146;2023-09-30T12:26:12;24.30;94.10
4090;DHT22;2059;48.538;12.146;2023-09-30T12:31:15;24.50;93.20
4090;DHT22;2059;48.538;12.146;2023-09-30T12:36:17;24.60;93.40
4090;DHT22;2059;48.538;12.146;2023-09-30T12:41:20;24.60;92.70
4090;DHT22;2059;48.538;12.146;2023-09-30T12:46:22;24.10;93.10
4090;DHT22;2059;48.538;12.146;2023-09-30T12:51:25;23.70;93.50
4090;DHT22;2059;48.538;12.146;2023-09-30T12:56:29;23.40;94.00
4090;DHT22;2059;48.538;12.146;2023-09-30T13:01:31;23.30;94.20
4090;DHT22;2059;48.538;12.146;2023-09-30T13:06:34;23.20;94.60
4090;DHT22;2059;48.538;12.146;2023-09-30T13:11:38;23.00;94.40
4090;DHT22;2059;48.538;12.146;2023-09-30T13:16:44;23.00;94.70
4090;DHT22;2059;48.538;12.146;2023-09-30T13:21:46;23.10;94.60
4090;DHT22;2059;48.538;12.146;2023-09-30T13:26:49;23.40;94.30
4090;DHT22;2059;48.538;12.146;2023-09-30T13:31:53;23.60;93.90
4090;DHT22;2059;48.538;12.146;2023-09-30T13:36:55;23.70;92.40
4090;DHT22;2059;48.538;12.146;2023-09-30T13:41:59;23.60;92.60
4090;DHT22;2059;48.538;12.146;2023-09-30T13:47:01;23.40;93.00
4090;DHT22;2059;48.538;12.146;2023-09-30T13:52:04;23.10;93.50
4090;DHT22;2059;48.538;12.146;2023-09-30T13:57:07;23.00;94.00
4090;DHT22;2059;48.538;12.146;2023-09-30T14:02:09;23.00;93.90
4090;DHT22;2059;48.538;12.146;2023-09-30T14:07:14;22.90;93.80
4090;DHT22;2059;48.538;12.146;2023-09-30T14:12:20;22.80;94.20
4090;DHT22;2059;48.538;12.146;2023-09-30T14:17:22;22.80;93.90
4090;DHT22;2059;48.538;12.146;2023-09-30T14:22:24;22.80;93.70
4090;DHT22;2059;48.538;12.146;2023-09-30T14:27:28;22.80;94.00
4090;DHT22;2059;48.538;12.146;2023-09-30T14:32:30;22.80;93.80
4090;DHT22;2059;48.538;12.146;2023-09-30T14:37:32;22.70;94.00
4090;DHT22;2059;48.538;12.146;2023-09-30T14:42:35;22.60;93.70
4090;DHT22;2059;48.538;12.146;2023-09-30T14:47:36;22.50;94.10
4090;DHT22;2059;48.538;12.146;2023-09-30T14:52:38;22.40;94.40
4090;DHT22;2059;48.538;12.146;2023-09-30T14:57:42;22.30;94.50
4090;DHT22;2059;48.538;12.146;2023-09-30T15:02:44;22.30;94.60
4090;DHT22;2059;48.538;12.146;2023-09-30T15:07:45;22.20;94.40
4090;DHT22;2059;48.538;12.146;2023-09-30T15:17:52;22.00;94.40
4090;DHT22;2059;48.538;12.146;2023-09-30T15:22:55;21.90;94.70
4090;DHT22;2059;48.538;12.146;2023-09-30T15:27:56;21.80;94.60
4090;DHT22;2059;48.538;12.146;2023-09-30T15:32:59;21.80;94.40
4090;DHT22;2059;48.538;12.146;2023-09-30T15:38:02;21.60;94.60
4090;DHT22;2059;48.538;12.146;2023-09-30T15:48:09;21.50;94.90
4090;DHT22;2059;48.538;12.146;2023-09-30T15:53:13;21.30;94.80
4090;DHT22;2059;48.538;12.146;2023-09-30T15:58:15;21.20;95.10
4090;DHT22;2059;48.538;12.146;2023-09-30T16:03:18;21.00;95.20
4090;DHT22;2059;48.538;12.146;2023-09-30T16:08:20;21.00;95.20
4090;DHT22;2059;48.538;12.146;2023-09-30T16:13:22;20.90;95.30
4090;DHT22;2059;48.538;12.146;2023-09-30T16:18:25;20.80;95.40
4090;DHT22;2059;48.538;12.146;2023-09-30T16:23:30;20.60;95.50
4090;DHT22;2059;48.538;12.146;2023-09-30T16:28:32;20.50;95.60
4090;DHT22;2059;48.538;12.146;2023-09-30T16:33:35;20.40;95.70
4090;DHT22;2059;48.538;12.146;2023-09-30T16:38:37;20.30;95.80
4090;DHT22;2059;48.538;12.146;2023-09-30T16:43:38;20.20;95.70
4090;DHT22;2059;48.538;12.146;2023-09-30T16:48:42;20.10;95.90
4090;DHT22;2059;48.538;12.146;2023-09-30T16:53:45;20.00;96.20
4090;DHT22;2059;48.538;12.146;2023-09-30T16:58:46;19.90;96.30
4090;DHT22;2059;48.538;12.146;2023-09-30T17:03:50;19.70;96.30
4090;DHT22;2059;48.538;12.146;2023-09-30T17:08:51;19.60;96.40
4090;DHT22;2059;48.538;12.146;2023-09-30T17:13:53;19.60;96.90
4090;DHT22;2059;48.538;12.146;2023-09-30T17:18:56;19.50;97.10
4090;DHT22;2059;48.538;12.146;2023-09-30T17:23:58;19.40;97.30
4090;DHT22;2059;48.538;12.146;2023-09-30T17:29:00;19.40;97.50
4090;DHT22;2059;48.538;12.146;2023-09-30T17:34:04;19.20;97.70
4090;DHT22;2059;48.538;12.146;2023-09-30T17:39:06;19.10;97.80
4090;DHT22;2059;48.538;12.146;2023-09-30T17:44:08;19.00;97.90
4090;DHT22;2059;48.538;12.146;2023-09-30T17:49:11;18.90;98.00
4090;DHT22;2059;48.538;12.146;2023-09-30T17:54:13;18.80;98.20
4090;DHT22;2059;48.538;12.146;2023-09-30T17:59:15;18.80;98.30
4090;DHT22;2059;48.538;12.146;2023-09-30T18:04:18;18.70;98.50
4090;DHT22;2059;48.538;12.146;2023-09-30T18:09:20;18.60;98.60
4090;DHT22;2059;48.538;12.146;2023-09-30T18:14:22;18.50;98.70
4090;DHT22;2059;48.538;12.146;2023-09-30T18:19:25;18.50;98.90
4090;DHT22;2059;48.538;12.146;2023-09-30T18:24:27;18.50;98.90
4090;DHT22;2059;48.538;12.146;2023-09-30T18:29:29;18.60;98.90
4090;DHT22;2059;48.538;12.146;2023-09-30T18:34:32;18.40;99.20
4090;DHT22;2059;48.538;12.146;2023-09-30T18:39:35;18.50;99.10
4090;DHT22;2059;48.538;12.146;2023-09-30T18:44:39;18.20;99.40
4090;DHT22;2059;48.538;12.146;2023-09-30T18:49:42;18.20;99.50
4090;DHT22;2059;48.538;12.146;2023-09-30T18:54:44;18.10;99.50
4090;DHT22;2059;48.538;12.146;2023-09-30T18:59:45;18.00;99.70
4090;DHT22;2059;48.538;12.146;2023-09-30T19:04:49;18.00;99.70
4090;DHT22;2059;48.538;12.146;2023-09-30T19:09:51;17.90;99.70
4090;DHT22;2059;48.538;12.146;2023-09-30T19:14:53;17.80;99.80
4090;DHT22;2059;48.538;12.146;2023-09-30T19:19:57;18.00;99.40
4090;DHT22;2059;48.538;12.146;2023-09-30T19:24:58;17.70;99.50
4090;DHT22;2059;48.538;12.146;2023-09-30T19:30:01;17.60;99.90
4090;DHT22;2059;48.538;12.146;2023-09-30T19:35:08;17.40;99.90
4090;DHT22;2059;48.538;12.146;2023-09-30T19:40:11;17.40;99.90
4090;DHT22;2059;48.538;12.146;2023-09-30T19:45:12;17.30;99.90
4090;DHT22;2059;48.538;12.146;2023-09-30T19:50:16;17.10;99.90
4090;DHT22;2059;48.538;12.146;2023-09-30T19:55:18;17.10;99.90
4090;DHT22;2059;48.538;12.146;2023-09-30T20:00:20;17.10;99.90
4090;DHT22;2059;48.538;12.146;2023-09-30T20:05:23;17.10;99.90
4090;DHT22;2059;48.538;12.146;2023-09-30T20:10:25;17.00;99.90
4090;DHT22;2059;48.538;12.146;2023-09-30T20:15:27;17.00;99.90
4090;DHT22;2059;48.538;12.146;2023-09-30T20:20:32;16.90;99.90
4090;DHT22;2059;48.538;12.146;2023-09-30T20:25:34;16.80;99.90
4090;DHT22;2059;48.538;12.146;2023-09-30T20:30:36;16.80;99.90
4090;DHT22;2059;48.538;12.146;2023-09-30T20:35:39;16.60;99.90
4090;DHT22;2059;48.538;12.146;2023-09-30T20:40:41;16.70;99.90
4090;DHT22;2059;48.538;12.146;2023-09-30T20:45:43;16.60;99.90
4090;DHT22;2059;48.538;12.146;2023-09-30T20:50:46;16.60;99.90
4090;DHT22;2059;48.538;12.146;2023-09-30T20:55:48;16.50;99.90
4090;DHT22;2059;48.538;12.146;2023-09-30T21:00:50;16.50;99.90
4090;DHT22;2059;48.538;12.146;2023-09-30T21:05:53;16.50;99.90
4090;DHT22;2059;48.538;12.146;2023-09-30T21:10:55;16.30;99.90
4090;DHT22;2059;48.538;12.146;2023-09-30T21:15:57;16.20;99.90
4090;DHT22;2059;48.538;12.146;2023-09-30T21:21:00;16.20;99.90
4090;DHT22;2059;48.538;12.146;2023-09-30T21:26:02;16.20;99.90
4090;DHT22;2059;48.538;12.146;2023-09-30T21:31:05;16.20;99.90
4090;DHT22;2059;48.538;12.146;2023-09-30T21:36:08;16.10;99.90
4090;DHT22;2059;48.538;12.146;2023-09-30T21:41:13;15.90;99.90
4090;DHT22;2059;48.538;12.146;2023-09-30T21:46:15;15.90;99.90
4090;DHT22;2059;48.538;12.146;2023-09-30T21:51:19;15.90;99.90
4090;DHT22;2059;48.538;12.146;2023-09-30T21:56:21;16.00;99.90
4090;DHT22;2059;48.538;12.146;2023-09-30T22:01:23;15.90;99.90
4090;DHT22;2059;48.538;12.146;2023-09-30T22:06:26;15.80;99.90
4090;DHT22;2059;48.538;12.146;2023-09-30T22:11:29;15.80;99.90
4090;DHT22;2059;48.538;12.146;2023-09-30T22:16:31;15.80;99.90
4090;DHT22;2059;48.538;12.146;2023-09-30T22:21:34;15.80;99.90
4090;DHT22;2059;48.538;12.146;2023-09-30T22:26:36;15.80;99.90
4090;DHT22;2059;48.538;12.146;2023-09-30T22:31:38;15.80;99.90
4090;DHT22;2059;48.538;12.146;2023-09-30T22:36:41;15.80;99.90
4090;DHT22;2059;48.538;12.146;2023-09-30T22:41:43;15.80;99.90
4090;DHT22;2059;48.538;12.146;2023-09-30T22:46:45;15.80;99.90
4090;DHT22;2059;48.538;12.146;2023-09-30T22:51:48;15.80;99.90
4090;DHT22;2059;48.538;12.146;2023-09-30T22:56:50;15.70;99.90
4090;DHT22;2059;48.538;12.146;2023-09-30T23:01:54;15.70;99.90
4090;DHT22;2059;48.538;12.146;2023-09-30T23:06:58;15.70;99.90
4090;DHT22;2059;48.538;12.146;2023-09-30T23:12:02;15.50;99.90
4090;DHT22;2059;48.538;12.146;2023-09-30T23:17:06;15.50;99.90
4090;DHT22;2059;48.538;12.146;2023-09-30T23:22:09;15.50;99.90
4090;DHT22;2059;48.538;12.146;2023-09-30T23:27:13;15.40;99.90
4090;DHT22;2059;48.538;12.146;2023-09-30T23:32:16;15.40;99.90
4090;DHT22;2059;48.538;12.146;2023-09-30T23:37:19;15.40;99.90
4090;DHT22;2059;48.538;12.146;2023-09-30T23:42:21;15.50;99.90
4090;DHT22;2059;48.538;12.146;2023-09-30T23:47:22;15.50;99.90
4090;DHT22;2059;48.538;12.146;2023-09-30T23:52:26;15.40;99.90
4090;DHT22;2059;48.538;12.146;2023-09-30T23:57:29;15.40;99.90
